PWSweather.com
Personal Weather Stations
Station Observations
ZYBORSKI
Fromes HillGB hr8 1

Fromes HillGB hr8 1

Lat: 52.1172558, Lon: -2.4749163

Elevation: 0

Station Type: FineOffset

High Low Average
Temperature 43.0°F6.1°F 33.1°F0.6°F 36.9°F2.7°F
Dew Point 42.7°F5.9°F 32.8°F0.4°F 36.6°F2.6°F
Winds 13.0 mph W20.9 mph W Calm Calm 3.0 mph 4.8 mph
Wind Gusts 26.6 mph42.8 mph -- 10.9 mph17.5 mph
Humidity 99% 94% 99%
Pressure 29.22 in989.50 in 29.00 in982.10 in -
Precipitation 0.08 in2.00 in - -
Hour Temp Dew Point Humidity Winds Wind Gusts Pressure Precip Precip Rate Daily Precip Total
12:00 AM 36.3°F2.4°C 36.1°F2.3°C 99% 10.7 mph W17.2 kmh W 24.4 mph39.3 kmh 29.10 in985.4 mb 0.00 in0.0 mm 0.00 in/hr0.0 mm/hr 0.00 in0.0 mm
12:15 AM 36.3°F2.4°C 36.1°F2.3°C 99% 12.1 mph WSW19.5 kmh WSW 23.5 mph37.8 kmh 29.09 in985.1 mb 0.00 in0.0 mm 0.00 in/hr0.0 mm/hr 0.00 in0.0 mm
12:30 AM 36.5°F2.5°C 36.2°F2.3°C 99% 8.3 mph W13.4 kmh W 26.6 mph42.8 kmh 29.08 in984.8 mb 0.00 in0.0 mm 0.00 in/hr0.0 mm/hr 0.00 in0.0 mm
12:45 AM 36.7°F2.6°C 36.4°F2.4°C 99% 13.0 mph W20.9 kmh W 22.8 mph36.7 kmh 29.08 in984.8 mb 0.00 in0.0 mm 0.00 in/hr0.0 mm/hr 0.00 in0.0 mm
01:00 AM 36.3°F2.4°C 36.1°F2.3°C 99% 10.7 mph WSW17.2 kmh WSW 20.6 mph33.2 kmh 29.07 in984.4 mb 0.00 in0.0 mm 0.00 in/hr0.0 mm/hr 0.00 in0.0 mm
01:15 AM 36.5°F2.5°C 36.2°F2.3°C 99% 6.0 mph WSW9.7 kmh WSW 16.8 mph27.0 kmh 29.06 in984.1 mb 0.00 in0.0 mm 0.00 in/hr0.0 mm/hr 0.00 in0.0 mm
01:30 AM 36.0°F2.2°C 35.7°F2.1°C 99% 4.5 mph WSW7.2 kmh WSW 21.3 mph34.3 kmh 29.05 in983.7 mb 0.00 in0.0 mm 0.00 in/hr0.0 mm/hr 0.00 in0.0 mm
01:45 AM 36.3°F2.4°C 36.1°F2.3°C 99% 5.4 mph SW8.7 kmh SW 18.3 mph29.5 kmh 29.05 in983.7 mb 0.00 in0.0 mm 0.00 in/hr0.0 mm/hr 0.00 in0.0 mm
02:00 AM 36.0°F2.2°C 35.7°F2.1°C 99% 6.9 mph WSW11.1 kmh WSW 25.1 mph40.4 kmh 29.04 in983.4 mb 0.01 in0.3 mm 0.01 in/hr0.3 mm/hr 0.01 in0.3 mm
02:15 AM 35.6°F2.0°C 35.4°F1.9°C 99% 0.7 mph W1.1 kmh W 19.0 mph30.6 kmh 29.04 in983.4 mb 0.01 in0.3 mm 0.00 in/hr0.0 mm/hr 0.01 in0.3 mm
02:30 AM 35.8°F2.1°C 35.5°F1.9°C 99% 0.7 mph WSW1.1 kmh WSW 13.6 mph21.9 kmh 29.02 in982.7 mb 0.02 in0.5 mm 0.04 in/hr1.0 mm/hr 0.02 in0.5 mm
02:45 AM 35.6°F2.0°C 35.4°F1.9°C 99% 5.4 mph SW8.7 kmh SW 16.8 mph27.0 kmh 29.01 in982.4 mb 0.02 in0.5 mm 0.00 in/hr0.0 mm/hr 0.02 in0.5 mm
03:00 AM 35.4°F1.9°C 35.2°F1.8°C 99% 3.1 mph WSW5.0 kmh WSW 14.5 mph23.3 kmh 29.01 in982.4 mb 0.01 in0.3 mm 0.00 in/hr0.0 mm/hr 0.02 in0.5 mm
03:15 AM 35.6°F2.0°C 35.4°F1.9°C 99% 3.1 mph WSW5.0 kmh WSW 9.2 mph14.8 kmh 29.00 in982.1 mb 0.01 in0.3 mm 0.00 in/hr0.0 mm/hr 0.02 in0.5 mm
03:30 AM 35.6°F2.0°C 35.4°F1.9°C 99% 1.6 mph W2.6 kmh W 11.4 mph18.3 kmh 29.00 in982.1 mb 0.00 in0.0 mm 0.00 in/hr0.0 mm/hr 0.02 in0.5 mm
03:45 AM 35.4°F1.9°C 35.2°F1.8°C 99% Calm Calm 8.3 mph13.4 kmh 29.01 in982.4 mb 0.00 in0.0 mm 0.00 in/hr0.0 mm/hr 0.02 in0.5 mm
04:00 AM 35.2°F1.8°C 35.0°F1.7°C 99% Calm Calm -- 29.01 in982.4 mb 0.00 in0.0 mm 0.00 in/hr0.0 mm/hr 0.02 in0.5 mm
04:15 AM 35.2°F1.8°C 35.0°F1.7°C 99% Calm Calm -- 29.03 in983.1 mb 0.00 in0.0 mm 0.00 in/hr0.0 mm/hr 0.02 in0.5 mm
04:30 AM 34.9°F1.6°C 34.6°F1.4°C 99% Calm Calm 6.9 mph11.1 kmh 29.04 in983.4 mb 0.00 in0.0 mm 0.00 in/hr0.0 mm/hr 0.02 in0.5 mm
04:45 AM 35.8°F2.1°C 35.5°F1.9°C 99% 2.2 mph NW3.5 kmh NW 16.8 mph27.0 kmh 29.05 in983.7 mb 0.00 in0.0 mm 0.00 in/hr0.0 mm/hr 0.02 in0.5 mm
05:00 AM 36.5°F2.5°C 36.2°F2.3°C 99% 9.2 mph NW14.8 kmh NW 18.3 mph29.5 kmh 29.07 in984.4 mb 0.00 in0.0 mm 0.00 in/hr0.0 mm/hr 0.02 in0.5 mm
05:15 AM 36.7°F2.6°C 36.4°F2.4°C 99% 6.0 mph NW9.7 kmh NW 24.4 mph39.3 kmh 29.09 in985.1 mb 0.00 in0.0 mm 0.00 in/hr0.0 mm/hr 0.02 in0.5 mm
05:30 AM 36.1°F2.3°C 35.9°F2.2°C 99% 7.6 mph N12.2 kmh N 22.8 mph36.7 kmh 29.11 in985.8 mb 0.00 in0.0 mm 0.00 in/hr0.0 mm/hr 0.02 in0.5 mm
05:45 AM 35.8°F2.1°C 35.5°F1.9°C 99% 11.4 mph NNW18.3 kmh NNW 21.3 mph34.3 kmh 29.13 in986.5 mb 0.00 in0.0 mm 0.00 in/hr0.0 mm/hr 0.02 in0.5 mm
06:00 AM 35.8°F2.1°C 35.5°F1.9°C 99% 9.8 mph NW15.8 kmh NW 23.5 mph37.8 kmh 29.14 in986.8 mb 0.00 in0.0 mm 0.00 in/hr0.0 mm/hr 0.02 in0.5 mm
06:15 AM 35.2°F1.8°C 35.0°F1.7°C 99% 9.8 mph NW15.8 kmh NW 19.7 mph31.7 kmh 29.16 in987.5 mb 0.00 in0.0 mm 0.00 in/hr0.0 mm/hr 0.02 in0.5 mm
06:30 AM 34.9°F1.6°C 34.6°F1.4°C 99% 4.5 mph NW7.2 kmh NW 17.4 mph28.0 kmh 29.18 in988.1 mb 0.00 in0.0 mm 0.00 in/hr0.0 mm/hr 0.02 in0.5 mm
06:45 AM 34.3°F1.3°C 34.1°F1.2°C 99% 3.8 mph WNW6.1 kmh WNW 13.0 mph20.9 kmh 29.19 in988.5 mb 0.00 in0.0 mm 0.00 in/hr0.0 mm/hr 0.02 in0.5 mm
07:00 AM 34.5°F1.4°C 34.3°F1.3°C 99% Calm Calm 12.1 mph19.5 kmh 29.20 in988.8 mb 0.00 in0.0 mm 0.00 in/hr0.0 mm/hr 0.02 in0.5 mm
07:15 AM 34.5°F1.4°C 34.3°F1.3°C 99% 3.1 mph NW5.0 kmh NW 11.4 mph18.3 kmh 29.20 in988.8 mb 0.00 in0.0 mm 0.00 in/hr0.0 mm/hr 0.02 in0.5 mm
07:30 AM 34.2°F1.2°C 33.9°F1.1°C 99% Calm Calm 6.0 mph9.7 kmh 29.21 in989.2 mb 0.00 in0.0 mm 0.00 in/hr0.0 mm/hr 0.02 in0.5 mm
07:45 AM 34.0°F1.1°C 33.7°F0.9°C 99% 3.1 mph W5.0 kmh W 10.7 mph17.2 kmh 29.21 in989.2 mb 0.00 in0.0 mm 0.00 in/hr0.0 mm/hr 0.02 in0.5 mm
08:00 AM 34.2°F1.2°C 33.9°F1.1°C 99% 0.7 mph WNW1.1 kmh WNW 8.3 mph13.4 kmh 29.21 in989.2 mb 0.00 in0.0 mm 0.00 in/hr0.0 mm/hr 0.02 in0.5 mm
08:15 AM 34.0°F1.1°C 33.7°F0.9°C 99% Calm Calm 4.5 mph7.2 kmh 29.21 in989.2 mb 0.00 in0.0 mm 0.00 in/hr0.0 mm/hr 0.02 in0.5 mm
08:30 AM 34.0°F1.1°C 33.7°F0.9°C 99% Calm Calm 3.1 mph5.0 kmh 29.21 in989.2 mb 0.00 in0.0 mm 0.00 in/hr0.0 mm/hr 0.02 in0.5 mm
08:45 AM 33.8°F1.0°C 33.6°F0.9°C 99% Calm Calm -- 29.21 in989.2 mb 0.00 in0.0 mm 0.00 in/hr0.0 mm/hr 0.02 in0.5 mm
09:00 AM 34.2°F1.2°C 33.9°F1.1°C 99% Calm Calm -- 29.21 in989.2 mb 0.00 in0.0 mm 0.00 in/hr0.0 mm/hr 0.02 in0.5 mm
09:15 AM 34.9°F1.6°C 34.6°F1.4°C 99% Calm Calm 5.4 mph8.7 kmh 29.21 in989.2 mb 0.00 in0.0 mm 0.00 in/hr0.0 mm/hr 0.02 in0.5 mm
09:30 AM 35.1°F1.7°C 34.8°F1.6°C 99% Calm Calm 4.5 mph7.2 kmh 29.21 in989.2 mb 0.00 in0.0 mm 0.00 in/hr0.0 mm/hr 0.02 in0.5 mm
09:45 AM 35.2°F1.8°C 35.0°F1.7°C 99% Calm Calm 5.4 mph8.7 kmh 29.22 in989.5 mb 0.00 in0.0 mm 0.00 in/hr0.0 mm/hr 0.02 in0.5 mm
10:00 AM 36.1°F2.3°C 35.9°F2.2°C 99% Calm Calm 2.2 mph3.5 kmh 29.22 in989.5 mb 0.00 in0.0 mm 0.00 in/hr0.0 mm/hr 0.02 in0.5 mm
10:15 AM 36.5°F2.5°C 36.2°F2.3°C 99% Calm Calm 5.4 mph8.7 kmh 29.22 in989.5 mb 0.00 in0.0 mm 0.00 in/hr0.0 mm/hr 0.02 in0.5 mm
10:30 AM 37.0°F2.8°C 36.8°F2.7°C 99% Calm Calm 5.4 mph8.7 kmh 29.21 in989.2 mb 0.00 in0.0 mm 0.00 in/hr0.0 mm/hr 0.02 in0.5 mm
10:45 AM 37.9°F3.3°C 37.7°F3.2°C 99% Calm Calm 8.3 mph13.4 kmh 29.21 in989.2 mb 0.00 in0.0 mm 0.00 in/hr0.0 mm/hr 0.02 in0.5 mm
11:00 AM 38.5°F3.6°C 38.2°F3.4°C 99% Calm Calm 6.9 mph11.1 kmh 29.22 in989.5 mb 0.00 in0.0 mm 0.00 in/hr0.0 mm/hr 0.02 in0.5 mm
11:15 AM 39.7°F4.3°C 39.5°F4.2°C 99% Calm Calm 7.6 mph12.2 kmh 29.22 in989.5 mb 0.00 in0.0 mm 0.00 in/hr0.0 mm/hr 0.02 in0.5 mm
11:30 AM 40.6°F4.8°C 40.4°F4.7°C 99% 1.6 mph W2.6 kmh W 10.7 mph17.2 kmh 29.21 in989.2 mb 0.00 in0.0 mm 0.00 in/hr0.0 mm/hr 0.02 in0.5 mm
11:45 AM 41.7°F5.4°C 41.5°F5.3°C 99% 3.1 mph W5.0 kmh W 7.6 mph12.2 kmh 29.21 in989.2 mb 0.00 in0.0 mm 0.00 in/hr0.0 mm/hr 0.02 in0.5 mm
12:00 PM 41.7°F5.4°C 41.5°F5.3°C 99% Calm Calm 9.2 mph14.8 kmh 29.21 in989.2 mb 0.00 in0.0 mm 0.00 in/hr0.0 mm/hr 0.02 in0.5 mm
12:15 PM 42.1°F5.6°C 41.8°F5.4°C 99% 8.3 mph W13.4 kmh W 15.9 mph25.6 kmh 29.21 in989.2 mb 0.00 in0.0 mm 0.00 in/hr0.0 mm/hr 0.02 in0.5 mm
12:30 PM 42.1°F5.6°C 41.8°F5.4°C 99% 9.2 mph W14.8 kmh W 14.5 mph23.3 kmh 29.20 in988.8 mb 0.00 in0.0 mm 0.00 in/hr0.0 mm/hr 0.02 in0.5 mm
12:45 PM 42.8°F6.0°C 42.5°F5.8°C 99% 11.4 mph W18.3 kmh W 20.6 mph33.2 kmh 29.20 in988.8 mb 0.00 in0.0 mm 0.00 in/hr0.0 mm/hr 0.02 in0.5 mm
01:00 PM 43.0°F6.1°C 42.7°F5.9°C 99% 9.8 mph WNW15.8 kmh WNW 20.6 mph33.2 kmh 29.21 in989.2 mb 0.00 in0.0 mm 0.00 in/hr0.0 mm/hr 0.02 in0.5 mm
01:15 PM 41.2°F5.1°C 40.9°F4.9°C 99% 4.5 mph NNW7.2 kmh NNW 19.0 mph30.6 kmh 29.20 in988.8 mb 0.00 in0.0 mm 0.00 in/hr0.0 mm/hr 0.02 in0.5 mm
01:30 PM 41.4°F5.2°C 41.1°F5.1°C 99% Calm Calm 12.1 mph19.5 kmh 29.20 in988.8 mb 0.00 in0.0 mm 0.00 in/hr0.0 mm/hr 0.02 in0.5 mm
01:45 PM 41.7°F5.4°C 41.5°F5.3°C 99% 3.8 mph W6.1 kmh W 16.8 mph27.0 kmh 29.21 in989.2 mb 0.00 in0.0 mm 0.00 in/hr0.0 mm/hr 0.02 in0.5 mm
02:00 PM 41.9°F5.5°C 41.6°F5.3°C 99% 3.1 mph WNW5.0 kmh WNW 19.7 mph31.7 kmh 29.21 in989.2 mb 0.00 in0.0 mm 0.00 in/hr0.0 mm/hr 0.02 in0.5 mm
02:15 PM 43.0°F6.1°C 42.2°F5.7°C 97% 4.5 mph WNW7.2 kmh WNW 19.0 mph30.6 kmh 29.20 in988.8 mb 0.00 in0.0 mm 0.00 in/hr0.0 mm/hr 0.02 in0.5 mm
02:30 PM 42.1°F5.6°C 40.5°F4.7°C 94% 11.4 mph NW18.3 kmh NW 22.8 mph36.7 kmh 29.21 in989.2 mb 0.00 in0.0 mm 0.00 in/hr0.0 mm/hr 0.02 in0.5 mm
02:45 PM 41.7°F5.4°C 41.5°F5.3°C 99% Calm Calm 17.4 mph28.0 kmh 29.21 in989.2 mb 0.00 in0.0 mm 0.00 in/hr0.0 mm/hr 0.02 in0.5 mm
03:00 PM 42.3°F5.7°C 41.5°F5.3°C 97% 3.8 mph WNW6.1 kmh WNW 14.5 mph23.3 kmh 29.21 in989.2 mb 0.00 in0.0 mm 0.00 in/hr0.0 mm/hr 0.02 in0.5 mm
03:15 PM 42.4°F5.8°C 41.7°F5.4°C 97% 3.1 mph W5.0 kmh W 15.9 mph25.6 kmh 29.21 in989.2 mb 0.00 in0.0 mm 0.00 in/hr0.0 mm/hr 0.02 in0.5 mm
03:30 PM 42.4°F5.8°C 40.8°F4.9°C 94% 1.6 mph W2.6 kmh W 13.0 mph20.9 kmh 29.21 in989.2 mb 0.00 in0.0 mm 0.00 in/hr0.0 mm/hr 0.02 in0.5 mm
03:45 PM 42.3°F5.7°C 40.7°F4.8°C 94% 3.8 mph WNW6.1 kmh WNW 13.0 mph20.9 kmh 29.21 in989.2 mb 0.00 in0.0 mm 0.00 in/hr0.0 mm/hr 0.02 in0.5 mm
04:00 PM 42.1°F5.6°C 41.3°F5.2°C 97% 5.4 mph W8.7 kmh W 9.2 mph14.8 kmh 29.20 in988.8 mb 0.00 in0.0 mm 0.00 in/hr0.0 mm/hr 0.02 in0.5 mm
04:15 PM 41.2°F5.1°C 40.4°F4.7°C 97% 6.0 mph W9.7 kmh W 14.5 mph23.3 kmh 29.20 in988.8 mb 0.00 in0.0 mm 0.00 in/hr0.0 mm/hr 0.02 in0.5 mm
04:30 PM 40.5°F4.7°C 39.4°F4.1°C 96% 6.0 mph W9.7 kmh W 14.5 mph23.3 kmh 29.20 in988.8 mb 0.00 in0.0 mm 0.00 in/hr0.0 mm/hr 0.02 in0.5 mm
04:45 PM 39.2°F4.0°C 38.7°F3.7°C 98% 2.2 mph W3.5 kmh W 11.4 mph18.3 kmh 29.21 in989.2 mb 0.00 in0.0 mm 0.00 in/hr0.0 mm/hr 0.02 in0.5 mm
05:00 PM 38.8°F3.8°C 38.3°F3.5°C 98% 4.5 mph W7.2 kmh W 15.2 mph24.5 kmh 29.20 in988.8 mb 0.00 in0.0 mm 0.00 in/hr0.0 mm/hr 0.02 in0.5 mm
05:15 PM 38.1°F3.4°C 37.9°F3.3°C 99% 3.1 mph W5.0 kmh W 9.8 mph15.8 kmh 29.20 in988.8 mb 0.00 in0.0 mm 0.00 in/hr0.0 mm/hr 0.02 in0.5 mm
05:30 PM 37.4°F3.0°C 37.1°F2.8°C 99% Calm Calm 9.2 mph14.8 kmh 29.21 in989.2 mb 0.00 in0.0 mm 0.00 in/hr0.0 mm/hr 0.02 in0.5 mm
05:45 PM 36.9°F2.7°C 36.6°F2.6°C 99% Calm Calm 1.6 mph2.6 kmh 29.20 in988.8 mb 0.00 in0.0 mm 0.00 in/hr0.0 mm/hr 0.02 in0.5 mm
06:00 PM 36.7°F2.6°C 36.4°F2.4°C 99% Calm Calm 2.2 mph3.5 kmh 29.21 in989.2 mb 0.00 in0.0 mm 0.00 in/hr0.0 mm/hr 0.02 in0.5 mm
06:15 PM 36.7°F2.6°C 36.4°F2.4°C 99% Calm Calm 5.4 mph8.7 kmh 29.21 in989.2 mb 0.00 in0.0 mm 0.00 in/hr0.0 mm/hr 0.02 in0.5 mm
06:30 PM 37.2°F2.9°C 37.0°F2.8°C 99% 6.9 mph W11.1 kmh W 21.3 mph34.3 kmh 29.21 in989.2 mb 0.00 in0.0 mm 0.00 in/hr0.0 mm/hr 0.02 in0.5 mm
06:45 PM 37.0°F2.8°C 36.8°F2.7°C 99% 6.9 mph W11.1 kmh W 14.5 mph23.3 kmh 29.20 in988.8 mb 0.00 in0.0 mm 0.00 in/hr0.0 mm/hr 0.02 in0.5 mm
07:00 PM 36.3°F2.4°C 36.1°F2.3°C 99% Calm Calm -- 29.21 in989.2 mb 0.00 in0.0 mm 0.00 in/hr0.0 mm/hr 0.02 in0.5 mm
07:15 PM 36.0°F2.2°C 35.7°F2.1°C 99% Calm Calm -- 29.21 in989.2 mb 0.00 in0.0 mm 0.00 in/hr0.0 mm/hr 0.02 in0.5 mm
07:30 PM 36.0°F2.2°C 35.7°F2.1°C 99% Calm Calm 5.4 mph8.7 kmh 29.21 in989.2 mb 0.00 in0.0 mm 0.00 in/hr0.0 mm/hr 0.02 in0.5 mm
07:45 PM 35.4°F1.9°C 35.2°F1.8°C 99% Calm Calm -- 29.21 in989.2 mb 0.00 in0.0 mm 0.00 in/hr0.0 mm/hr 0.02 in0.5 mm
08:00 PM 35.4°F1.9°C 35.2°F1.8°C 99% Calm Calm 3.1 mph5.0 kmh 29.21 in989.2 mb 0.00 in0.0 mm 0.00 in/hr0.0 mm/hr 0.02 in0.5 mm
08:15 PM 35.8°F2.1°C 35.5°F1.9°C 99% 3.8 mph W6.1 kmh W 13.0 mph20.9 kmh 29.21 in989.2 mb 0.00 in0.0 mm 0.00 in/hr0.0 mm/hr 0.02 in0.5 mm
08:30 PM 35.2°F1.8°C 35.0°F1.7°C 99% Calm Calm 9.2 mph14.8 kmh 29.21 in989.2 mb 0.00 in0.0 mm 0.00 in/hr0.0 mm/hr 0.02 in0.5 mm
08:45 PM 34.7°F1.5°C 34.5°F1.4°C 99% Calm Calm 3.1 mph5.0 kmh 29.21 in989.2 mb 0.00 in0.0 mm 0.00 in/hr0.0 mm/hr 0.02 in0.5 mm
09:00 PM 34.3°F1.3°C 34.1°F1.2°C 99% 0.7 mph W1.1 kmh W 3.8 mph6.1 kmh 29.21 in989.2 mb 0.00 in0.0 mm 0.00 in/hr0.0 mm/hr 0.02 in0.5 mm
09:15 PM 34.0°F1.1°C 33.7°F0.9°C 99% Calm Calm -- 29.20 in988.8 mb 0.00 in0.0 mm 0.00 in/hr0.0 mm/hr 0.02 in0.5 mm
09:30 PM 34.0°F1.1°C 33.7°F0.9°C 99% Calm Calm -- 29.21 in989.2 mb 0.00 in0.0 mm 0.00 in/hr0.0 mm/hr 0.02 in0.5 mm
09:45 PM 33.8°F1.0°C 33.6°F0.9°C 99% Calm Calm 0.7 mph1.1 kmh 29.21 in989.2 mb 0.00 in0.0 mm 0.00 in/hr0.0 mm/hr 0.02 in0.5 mm
10:00 PM 33.6°F0.9°C 33.4°F0.8°C 99% Calm Calm 1.6 mph2.6 kmh 29.20 in988.8 mb 0.00 in0.0 mm 0.00 in/hr0.0 mm/hr 0.02 in0.5 mm
10:15 PM 33.4°F0.8°C 33.2°F0.7°C 99% Calm Calm 3.8 mph6.1 kmh 29.21 in989.2 mb 0.00 in0.0 mm 0.00 in/hr0.0 mm/hr 0.02 in0.5 mm
10:30 PM 33.3°F0.7°C 33.0°F0.6°C 99% Calm Calm 2.2 mph3.5 kmh 29.20 in988.8 mb 0.00 in0.0 mm 0.00 in/hr0.0 mm/hr 0.02 in0.5 mm
10:45 PM 33.3°F0.7°C 33.0°F0.6°C 99% Calm Calm 4.5 mph7.2 kmh 29.20 in988.8 mb 0.00 in0.0 mm 0.00 in/hr0.0 mm/hr 0.02 in0.5 mm
11:00 PM 33.3°F0.7°C 33.0°F0.6°C 99% Calm Calm -- 29.20 in988.8 mb 0.00 in0.0 mm 0.00 in/hr0.0 mm/hr 0.02 in0.5 mm
11:15 PM 33.1°F0.6°C 32.8°F0.4°C 99% Calm Calm -- 29.20 in988.8 mb 0.00 in0.0 mm 0.00 in/hr0.0 mm/hr 0.02 in0.5 mm
11:30 PM 33.3°F0.7°C 33.0°F0.6°C 99% Calm Calm -- 29.20 in988.8 mb 0.00 in0.0 mm 0.00 in/hr0.0 mm/hr 0.02 in0.5 mm
11:45 PM 33.4°F0.8°C 33.2°F0.7°C 99% Calm Calm 5.4 mph8.7 kmh 29.20 in988.8 mb 0.00 in0.0 mm 0.00 in/hr0.0 mm/hr 0.02 in0.5 mm